sensor_id;sensor_type;location;lat;lon;timestamp;pressure;altitude;pressure_sealevel;temperature;humidity
14885;BME280;7534;50.762;7.000;2023-06-10T00:02:08;86657.47;;;-143.16;51.13
14885;BME280;7534;50.762;7.000;2023-06-10T00:04:36;86639.28;;;-143.16;51.40
14885;BME280;7534;50.762;7.000;2023-06-10T00:07:05;86661.50;;;-143.16;51.37
14885;BME280;7534;50.762;7.000;2023-06-10T00:09:38;86673.59;;;-143.16;51.02
14885;BME280;7534;50.762;7.000;2023-06-10T00:12:09;86693.78;;;-143.16;51.43
14885;BME280;7534;50.762;7.000;2023-06-10T00:14:39;86667.53;;;-143.16;51.67
14885;BME280;7534;50.762;7.000;2023-06-10T00:17:09;86633.25;;;-143.16;51.75
14885;BME280;7534;50.762;7.000;2023-06-10T00:19:37;86701.84;;;-143.16;51.84
14885;BME280;7534;50.762;7.000;2023-06-10T00:22:08;86655.44;;;-143.16;51.90
14885;BME280;7534;50.762;7.000;2023-06-10T00:24:35;86730.09;;;-143.16;51.96
14885;BME280;7534;50.762;7.000;2023-06-10T00:27:00;86726.06;;;-143.16;52.14
14885;BME280;7534;50.762;7.000;2023-06-10T00:29:26;86754.31;;;-143.16;52.23
14885;BME280;7534;50.762;7.000;2023-06-10T00:31:52;86726.06;;;-143.16;52.44
14885;BME280;7534;50.762;7.000;2023-06-10T00:34:23;86734.13;;;-143.16;52.51
14885;BME280;7534;50.762;7.000;2023-06-10T00:36:49;86736.16;;;-143.16;52.62
14885;BME280;7534;50.762;7.000;2023-06-10T00:39:15;86760.38;;;-143.16;52.68
14885;BME280;7534;50.762;7.000;2023-06-10T00:41:40;86750.28;;;-143.16;52.85
14885;BME280;7534;50.762;7.000;2023-06-10T00:44:06;86776.50;;;-143.16;53.19
14885;BME280;7534;50.762;7.000;2023-06-10T00:46:32;86740.19;;;-143.16;53.45
14885;BME280;7534;50.762;7.000;2023-06-10T00:49:00;86828.97;;;-143.16;53.69
14885;BME280;7534;50.762;7.000;2023-06-10T00:51:26;86790.63;;;-143.16;54.05
14885;BME280;7534;50.762;7.000;2023-06-10T00:53:53;86780.53;;;-143.16;54.07
14885;BME280;7534;50.762;7.000;2023-06-10T00:56:20;86790.63;;;-143.16;54.43
14885;BME280;7534;50.762;7.000;2023-06-10T00:58:47;86788.63;;;-143.16;54.66
14885;BME280;7534;50.762;7.000;2023-06-10T01:01:13;86784.56;;;-143.16;54.70
14885;BME280;7534;50.762;7.000;2023-06-10T01:03:41;86788.63;;;-143.16;54.83
14885;BME280;7534;50.762;7.000;2023-06-10T01:06:57;86818.88;;;-143.16;54.91
14885;BME280;7534;50.762;7.000;2023-06-10T01:09:42;86824.94;;;-143.16;54.84
14885;BME280;7534;50.762;7.000;2023-06-10T01:12:19;86828.97;;;-143.16;54.87
14885;BME280;7534;50.762;7.000;2023-06-10T01:14:48;86831.00;;;-143.16;54.93
14885;BME280;7534;50.762;7.000;2023-06-10T01:17:14;86851.16;;;-143.16;55.19
14885;BME280;7534;50.762;7.000;2023-06-10T01:19:42;86826.94;;;-143.16;55.11
14885;BME280;7534;50.762;7.000;2023-06-10T01:22:09;86833.00;;;-143.16;55.27
14885;BME280;7534;50.762;7.000;2023-06-10T01:24:37;86828.97;;;-143.16;55.36
14885;BME280;7534;50.762;7.000;2023-06-10T01:27:12;86851.16;;;-143.16;55.41
14885;BME280;7534;50.762;7.000;2023-06-10T01:29:46;86879.41;;;-143.16;55.71
14885;BME280;7534;50.762;7.000;2023-06-10T01:32:48;86855.19;;;-143.16;55.85
14885;BME280;7534;50.762;7.000;2023-06-10T01:35:15;86875.38;;;-143.16;56.03
14885;BME280;7534;50.762;7.000;2023-06-10T01:37:45;86885.47;;;-143.16;56.39
14885;BME280;7534;50.762;7.000;2023-06-10T01:40:13;86883.44;;;-143.16;56.59
14885;BME280;7534;50.762;7.000;2023-06-10T01:42:39;86885.47;;;-143.16;56.42
14885;BME280;7534;50.762;7.000;2023-06-10T01:45:06;86893.53;;;-143.16;56.64
14885;BME280;7534;50.762;7.000;2023-06-10T01:47:31;86921.78;;;-143.16;56.80
14885;BME280;7534;50.762;7.000;2023-06-10T01:49:57;86897.59;;;-143.16;56.84
14885;BME280;7534;50.762;7.000;2023-06-10T01:52:23;86903.63;;;-143.16;56.96
14885;BME280;7534;50.762;7.000;2023-06-10T01:54:49;86875.38;;;-143.16;57.07
14885;BME280;7534;50.762;7.000;2023-06-10T01:57:15;86925.84;;;-143.16;57.22
14885;BME280;7534;50.762;7.000;2023-06-10T01:59:41;86939.97;;;-143.16;57.21
14885;BME280;7534;50.762;7.000;2023-06-10T02:02:09;87022.69;;;-143.16;57.48
14885;BME280;7534;50.762;7.000;2023-06-10T02:04:35;86964.16;;;-143.16;57.57
14885;BME280;7534;50.762;7.000;2023-06-10T02:07:01;86972.25;;;-143.16;57.51
14885;BME280;7534;50.762;7.000;2023-06-10T02:09:30;86948.03;;;-143.16;57.75
14885;BME280;7534;50.762;7.000;2023-06-10T02:11:56;86964.16;;;-143.16;57.87
14885;BME280;7534;50.762;7.000;2023-06-10T02:14:21;86962.16;;;-143.16;58.20
14885;BME280;7534;50.762;7.000;2023-06-10T02:16:47;86933.91;;;-143.16;58.34
14885;BME280;7534;50.762;7.000;2023-06-10T02:19:13;86974.25;;;-143.16;58.52
14885;BME280;7534;50.762;7.000;2023-06-10T02:21:39;87016.63;;;-143.16;58.77
14885;BME280;7534;50.762;7.000;2023-06-10T02:24:05;87014.63;;;-143.16;58.78
14885;BME280;7534;50.762;7.000;2023-06-10T02:26:32;87002.50;;;-143.16;58.90
14885;BME280;7534;50.762;7.000;2023-06-10T02:28:57;87046.91;;;-143.16;59.12
14885;BME280;7534;50.762;7.000;2023-06-10T02:31:23;87059.00;;;-143.16;59.41
14885;BME280;7534;50.762;7.000;2023-06-10T02:33:50;87052.97;;;-143.16;59.52
14885;BME280;7534;50.762;7.000;2023-06-10T02:36:16;87059.00;;;-143.16;59.48
14885;BME280;7534;50.762;7.000;2023-06-10T02:38:42;86998.47;;;-143.16;59.79
14885;BME280;7534;50.762;7.000;2023-06-10T02:41:08;87050.94;;;-143.16;59.96
14885;BME280;7534;50.762;7.000;2023-06-10T02:43:33;87059.00;;;-143.16;60.02
14885;BME280;7534;50.762;7.000;2023-06-10T02:45:59;87071.13;;;-143.16;60.31
14885;BME280;7534;50.762;7.000;2023-06-10T02:48:26;87034.81;;;-143.16;60.51
14885;BME280;7534;50.762;7.000;2023-06-10T02:50:52;87032.78;;;-143.16;60.61
14885;BME280;7534;50.762;7.000;2023-06-10T02:53:18;87069.09;;;-143.16;60.66
14885;BME280;7534;50.762;7.000;2023-06-10T02:55:44;87081.22;;;-143.16;60.70
14885;BME280;7534;50.762;7.000;2023-06-10T02:58:10;87099.38;;;-143.16;60.70
14885;BME280;7534;50.762;7.000;2023-06-10T03:00:36;87091.31;;;-143.16;60.84
14885;BME280;7534;50.762;7.000;2023-06-10T03:03:03;87083.22;;;-143.16;60.98
14885;BME280;7534;50.762;7.000;2023-06-10T03:05:29;87034.81;;;-143.16;60.95
14885;BME280;7534;50.762;7.000;2023-06-10T03:07:56;87099.38;;;-143.16;61.07
14885;BME280;7534;50.762;7.000;2023-06-10T03:10:22;87052.97;;;-143.16;61.22
14885;BME280;7534;50.762;7.000;2023-06-10T03:12:47;87123.59;;;-143.16;61.07
14885;BME280;7534;50.762;7.000;2023-06-10T03:15:14;87050.94;;;-143.16;61.15
14885;BME280;7534;50.762;7.000;2023-06-10T03:17:41;87081.22;;;-143.16;61.11
14885;BME280;7534;50.762;7.000;2023-06-10T03:20:07;87129.66;;;-143.16;61.22
14885;BME280;7534;50.762;7.000;2023-06-10T03:22:36;87083.22;;;-143.16;61.18
14885;BME280;7534;50.762;7.000;2023-06-10T03:25:05;87123.59;;;-143.16;61.31
14885;BME280;7534;50.762;7.000;2023-06-10T03:27:31;87168.00;;;-143.16;61.34
14885;BME280;7534;50.762;7.000;2023-06-10T03:29:58;87127.63;;;-143.16;61.51
14885;BME280;7534;50.762;7.000;2023-06-10T03:32:23;87087.25;;;-143.16;61.49
14885;BME280;7534;50.762;7.000;2023-06-10T03:34:49;87161.94;;;-143.16;61.64
14885;BME280;7534;50.762;7.000;2023-06-10T03:37:15;87123.59;;;-143.16;61.68
14885;BME280;7534;50.762;7.000;2023-06-10T03:39:41;87077.19;;;-143.16;61.77
14885;BME280;7534;50.762;7.000;2023-06-10T03:42:06;87117.53;;;-143.16;61.65
14885;BME280;7534;50.762;7.000;2023-06-10T03:44:32;87113.50;;;-143.16;61.66
14885;BME280;7534;50.762;7.000;2023-06-10T03:46:59;87089.28;;;-143.16;61.47
14885;BME280;7534;50.762;7.000;2023-06-10T03:49:25;87077.19;;;-143.16;61.52
14885;BME280;7534;50.762;7.000;2023-06-10T03:51:52;87054.97;;;-143.16;61.52
14885;BME280;7534;50.762;7.000;2023-06-10T03:54:18;87020.69;;;-143.16;61.46
14885;BME280;7534;50.762;7.000;2023-06-10T03:56:44;87091.31;;;-143.16;61.34
14885;BME280;7534;50.762;7.000;2023-06-10T03:59:09;87079.19;;;-143.16;61.13
14885;BME280;7534;50.762;7.000;2023-06-10T04:01:35;87176.06;;;-143.16;61.06
14885;BME280;7534;50.762;7.000;2023-06-10T04:04:02;87016.63;;;-143.16;60.97
14885;BME280;7534;50.762;7.000;2023-06-10T04:06:28;87054.97;;;-143.16;60.79
14885;BME280;7534;50.762;7.000;2023-06-10T04:08:55;87008.56;;;-143.16;60.44
14885;BME280;7534;50.762;7.000;2023-06-10T04:11:23;86982.34;;;-143.16;60.23
14885;BME280;7534;50.762;7.000;2023-06-10T04:13:50;86990.41;;;-143.16;59.89
14885;BME280;7534;50.762;7.000;2023-06-10T04:16:15;86950.03;;;-143.16;59.63
14885;BME280;7534;50.762;7.000;2023-06-10T04:18:41;86933.91;;;-143.16;59.36
14885;BME280;7534;50.762;7.000;2023-06-10T04:21:07;86937.94;;;-143.16;59.05
14885;BME280;7534;50.762;7.000;2023-06-10T04:23:35;86980.31;;;-143.16;58.78
14885;BME280;7534;50.762;7.000;2023-06-10T04:26:03;86905.66;;;-143.16;58.45
14885;BME280;7534;50.762;7.000;2023-06-10T04:28:28;86966.19;;;-143.16;58.21
14885;BME280;7534;50.762;7.000;2023-06-10T04:30:54;86839.06;;;-143.16;57.91
14885;BME280;7534;50.762;7.000;2023-06-10T04:33:22;86796.69;;;-143.16;57.86
14885;BME280;7534;50.762;7.000;2023-06-10T04:35:48;86760.38;;;-143.16;56.88
14885;BME280;7534;50.762;7.000;2023-06-10T04:38:14;86734.13;;;-143.16;55.78
14885;BME280;7534;50.762;7.000;2023-06-10T04:40:40;86673.59;;;-143.16;55.35
14885;BME280;7534;50.762;7.000;2023-06-10T04:43:05;86485.94;;;-143.16;54.29
14885;BME280;7534;50.762;7.000;2023-06-10T04:45:31;86239.81;;;-143.16;50.20
14885;BME280;7534;50.762;7.000;2023-06-10T04:47:57;85880.69;;;-143.16;45.74
14885;BME280;7534;50.762;7.000;2023-06-10T04:50:23;85598.28;;;-143.16;41.08
14885;BME280;7534;50.762;7.000;2023-06-10T04:52:49;85261.44;;;-143.16;37.85
14885;BME280;7534;50.762;7.000;2023-06-10T04:55:17;85009.34;;;-143.16;35.33
14885;BME280;7534;50.762;7.000;2023-06-10T04:57:43;84767.31;;;-143.16;33.52
14885;BME280;7534;50.762;7.000;2023-06-10T05:00:10;84606.00;;;-143.16;32.04
14885;BME280;7534;50.762;7.000;2023-06-10T05:02:36;84505.16;;;-143.16;31.18
14885;BME280;7534;50.762;7.000;2023-06-10T05:05:03;84503.16;;;-143.16;31.01
14885;BME280;7534;50.762;7.000;2023-06-10T05:07:29;84662.47;;;-143.16;31.66
14885;BME280;7534;50.762;7.000;2023-06-10T05:09:55;84823.78;;;-143.16;32.15
14885;BME280;7534;50.762;7.000;2023-06-10T05:12:20;84969.00;;;-143.16;33.01
14885;BME280;7534;50.762;7.000;2023-06-10T05:14:46;85172.69;;;-143.16;33.78
14885;BME280;7534;50.762;7.000;2023-06-10T05:17:12;85285.66;;;-143.16;34.78
14885;BME280;7534;50.762;7.000;2023-06-10T05:19:38;85380.44;;;-143.16;36.10
14885;BME280;7534;50.762;7.000;2023-06-10T05:22:04;85344.13;;;-143.16;36.48
14885;BME280;7534;50.762;7.000;2023-06-10T05:24:30;85106.13;;;-143.16;35.08
14885;BME280;7534;50.762;7.000;2023-06-10T05:26:55;84710.84;;;-143.16;32.61
14885;BME280;7534;50.762;7.000;2023-06-10T05:29:21;84293.44;;;-143.16;30.58
14885;BME280;7534;50.762;7.000;2023-06-10T05:31:47;84140.19;;;-143.16;29.22
14885;BME280;7534;50.762;7.000;2023-06-10T05:34:13;84142.22;;;-143.16;29.21
14885;BME280;7534;50.762;7.000;2023-06-10T05:36:39;84390.22;;;-143.16;29.38
14885;BME280;7534;50.762;7.000;2023-06-10T05:39:04;84718.91;;;-143.16;30.75
14885;BME280;7534;50.762;7.000;2023-06-10T05:41:30;84997.22;;;-143.16;32.13
14885;BME280;7534;50.762;7.000;2023-06-10T05:43:56;85277.56;;;-143.16;33.67
14885;BME280;7534;50.762;7.000;2023-06-10T05:46:22;85451.03;;;-143.16;34.65
14885;BME280;7534;50.762;7.000;2023-06-10T05:48:47;85503.47;;;-143.16;35.73
14885;BME280;7534;50.762;7.000;2023-06-10T05:51:13;85608.38;;;-143.16;36.66
14885;BME280;7534;50.762;7.000;2023-06-10T05:53:39;85727.38;;;-143.16;37.40
14885;BME280;7534;50.762;7.000;2023-06-10T05:56:05;85777.81;;;-143.16;37.95
14885;BME280;7534;50.762;7.000;2023-06-10T05:58:31;85814.13;;;-143.16;38.40
14885;BME280;7534;50.762;7.000;2023-06-10T06:00:57;85824.22;;;-143.16;38.66
14885;BME280;7534;50.762;7.000;2023-06-10T06:03:22;85864.56;;;-143.16;39.12
14885;BME280;7534;50.762;7.000;2023-06-10T06:05:48;85896.84;;;-143.16;39.66
14885;BME280;7534;50.762;7.000;2023-06-10T06:08:14;85963.41;;;-143.16;40.15
14885;BME280;7534;50.762;7.000;2023-06-10T06:10:43;85933.16;;;-143.16;40.19
14885;BME280;7534;50.762;7.000;2023-06-10T06:13:08;85945.25;;;-143.16;40.26
14885;BME280;7534;50.762;7.000;2023-06-10T06:15:34;85965.44;;;-143.16;40.22
14885;BME280;7534;50.762;7.000;2023-06-10T06:18:00;85969.47;;;-143.16;40.25
14885;BME280;7534;50.762;7.000;2023-06-10T06:20:26;85943.25;;;-143.16;40.56
14885;BME280;7534;50.762;7.000;2023-06-10T06:22:51;85999.72;;;-143.16;40.06
14885;BME280;7534;50.762;7.000;2023-06-10T06:25:17;86001.75;;;-143.16;39.94
14885;BME280;7534;50.762;7.000;2023-06-10T06:27:43;85981.56;;;-143.16;40.10
14885;BME280;7534;50.762;7.000;2023-06-10T06:30:10;86017.88;;;-143.16;39.76
14885;BME280;7534;50.762;7.000;2023-06-10T06:32:41;85941.22;;;-143.16;39.55
14885;BME280;7534;50.762;7.000;2023-06-10T06:35:07;85925.09;;;-143.16;39.49
14885;BME280;7534;50.762;7.000;2023-06-10T06:37:34;85892.81;;;-143.16;39.39
14885;BME280;7534;50.762;7.000;2023-06-10T06:40:00;85854.47;;;-143.16;38.98
14885;BME280;7534;50.762;7.000;2023-06-10T06:42:27;85844.38;;;-143.16;38.69
14885;BME280;7534;50.762;7.000;2023-06-10T06:44:52;85800.00;;;-143.16;38.39
14885;BME280;7534;50.762;7.000;2023-06-10T06:47:19;85785.88;;;-143.16;38.00
14885;BME280;7534;50.762;7.000;2023-06-10T06:49:48;85747.56;;;-143.16;38.04
14885;BME280;7534;50.762;7.000;2023-06-10T06:52:15;85416.75;;;-143.16;35.83
14885;BME280;7534;50.762;7.000;2023-06-10T06:54:41;85057.75;;;-143.16;33.23
14885;BME280;7534;50.762;7.000;2023-06-10T06:57:07;84610.03;;;-143.16;30.45
14885;BME280;7534;50.762;7.000;2023-06-10T06:59:33;84017.22;;;-143.16;27.67
14885;BME280;7534;50.762;7.000;2023-06-10T07:02:00;83525.28;;;-143.16;25.99
14885;BME280;7534;50.762;7.000;2023-06-10T07:04:26;83281.38;;;-143.16;24.94
14885;BME280;7534;50.762;7.000;2023-06-10T07:06:52;82858.06;;;-143.16;24.02
14885;BME280;7534;50.762;7.000;2023-06-10T07:09:18;82541.66;;;-143.16;23.15
14885;BME280;7534;50.762;7.000;2023-06-10T07:11:46;81759.78;;;-143.16;21.96
14885;BME280;7534;50.762;7.000;2023-06-10T07:14:12;81090.88;;;-143.16;20.93
14885;BME280;7534;50.762;7.000;2023-06-10T07:16:37;81018.38;;;-143.16;20.32
14885;BME280;7534;50.762;7.000;2023-06-10T07:19:03;80728.28;;;-143.16;20.06
14885;BME280;7534;50.762;7.000;2023-06-10T07:21:30;80136.13;;;-143.16;19.44
14885;BME280;7534;50.762;7.000;2023-06-10T07:23:56;79989.13;;;-143.16;19.47
14885;BME280;7534;50.762;7.000;2023-06-10T07:26:24;79785.72;;;-143.16;19.13
14885;BME280;7534;50.762;7.000;2023-06-10T07:28:51;79183.66;;;-143.16;18.84
14885;BME280;7534;50.762;7.000;2023-06-10T07:31:17;79576.31;;;-143.16;19.10
14885;BME280;7534;50.762;7.000;2023-06-10T07:33:43;78736.72;;;-143.16;19.12
14885;BME280;7534;50.762;7.000;2023-06-10T07:36:09;77915.47;;;-143.16;18.24
14885;BME280;7534;50.762;7.000;2023-06-10T07:38:35;77116.53;;;-143.16;18.09
14885;BME280;7534;50.762;7.000;2023-06-10T07:41:01;76649.75;;;-143.16;17.83
14885;BME280;7534;50.762;7.000;2023-06-10T07:43:27;75947.66;;;-143.16;17.63
14885;BME280;7534;50.762;7.000;2023-06-10T07:45:52;75153.19;;;-143.16;17.35
14885;BME280;7534;50.762;7.000;2023-06-10T07:48:19;75016.47;;;-143.16;17.03
14885;BME280;7534;50.762;7.000;2023-06-10T07:50:45;75861.16;;;-143.16;17.35
14885;BME280;7534;50.762;7.000;2023-06-10T07:53:10;75491.06;;;-143.16;17.46
14885;BME280;7534;50.762;7.000;2023-06-10T07:55:36;75106.94;;;-143.16;16.90
14885;BME280;7534;50.762;7.000;2023-06-10T07:58:03;77768.53;;;-143.16;17.78
14885;BME280;7534;50.762;7.000;2023-06-10T08:00:29;78448.88;;;-143.16;18.24
14885;BME280;7534;50.762;7.000;2023-06-10T08:02:54;78819.28;;;-143.16;18.25
14885;BME280;7534;50.762;7.000;2023-06-10T08:05:21;78501.19;;;-143.16;18.25
14885;BME280;7534;50.762;7.000;2023-06-10T08:07:47;78275.75;;;-143.16;18.12
14885;BME280;7534;50.762;7.000;2023-06-10T08:10:12;79423.28;;;-143.16;18.67
14885;BME280;7534;50.762;7.000;2023-06-10T08:12:38;80313.38;;;-143.16;19.28
14885;BME280;7534;50.762;7.000;2023-06-10T08:15:05;80434.22;;;-143.16;19.53
14885;BME280;7534;50.762;7.000;2023-06-10T08:17:32;79634.69;;;-143.16;18.87
14885;BME280;7534;50.762;7.000;2023-06-10T08:19:57;79475.63;;;-143.16;18.80
14885;BME280;7534;50.762;7.000;2023-06-10T08:22:23;79807.88;;;-143.16;18.96
14885;BME280;7534;50.762;7.000;2023-06-10T08:24:52;80313.38;;;-143.16;19.26
14885;BME280;7534;50.762;7.000;2023-06-10T08:27:18;81094.91;;;-143.16;20.00
14885;BME280;7534;50.762;7.000;2023-06-10T08:29:44;81499.84;;;-143.16;20.33
14885;BME280;7534;50.762;7.000;2023-06-10T08:32:10;81040.53;;;-143.16;19.87
14885;BME280;7534;50.762;7.000;2023-06-10T08:34:36;80051.56;;;-143.16;19.04
14885;BME280;7534;50.762;7.000;2023-06-10T08:37:03;79848.16;;;-143.16;18.78
14885;BME280;7534;50.762;7.000;2023-06-10T08:39:29;79966.97;;;-143.16;18.80
14885;BME280;7534;50.762;7.000;2023-06-10T08:42:24;79439.38;;;-143.16;18.72
14885;BME280;7534;50.762;7.000;2023-06-10T08:44:55;79026.63;;;-143.16;18.33
14885;BME280;7534;50.762;7.000;2023-06-10T08:47:24;78974.28;;;-143.16;18.54
14885;BME280;7534;50.762;7.000;2023-06-10T08:49:51;79697.13;;;-143.16;18.91
14885;BME280;7534;50.762;7.000;2023-06-10T08:52:24;79928.72;;;-143.16;19.10
14885;BME280;7534;50.762;7.000;2023-06-10T08:55:01;79081.00;;;-143.16;18.42
14885;BME280;7534;50.762;7.000;2023-06-10T08:57:29;78491.13;;;-143.16;18.17
14885;BME280;7534;50.762;7.000;2023-06-10T08:59:57;78899.78;;;-143.16;18.26
14885;BME280;7534;50.762;7.000;2023-06-10T09:02:27;79638.72;;;-143.16;18.67
14885;BME280;7534;50.762;7.000;2023-06-10T09:04:53;79614.56;;;-143.16;18.81
14885;BME280;7534;50.762;7.000;2023-06-10T09:07:21;80315.38;;;-143.16;19.32
14885;BME280;7534;50.762;7.000;2023-06-10T09:09:49;80559.09;;;-143.16;19.36
14885;BME280;7534;50.762;7.000;2023-06-10T09:12:15;80677.94;;;-143.16;19.43
14885;BME280;7534;50.762;7.000;2023-06-10T09:14:44;81278.25;;;-143.16;20.19
14885;BME280;7534;50.762;7.000;2023-06-10T09:17:10;81763.81;;;-143.16;20.84
14885;BME280;7534;50.762;7.000;2023-06-10T09:19:38;81518.00;;;-143.16;20.61
14885;BME280;7534;50.762;7.000;2023-06-10T09:22:04;81677.16;;;-143.16;21.04
14885;BME280;7534;50.762;7.000;2023-06-10T09:24:30;81511.94;;;-143.16;20.58
14885;BME280;7534;50.762;7.000;2023-06-10T09:27:08;81372.94;;;-143.16;20.31
14885;BME280;7534;50.762;7.000;2023-06-10T09:29:54;80925.69;;;-143.16;20.14
14885;BME280;7534;50.762;7.000;2023-06-10T09:32:21;80663.84;;;-143.16;19.81
14885;BME280;7534;50.762;7.000;2023-06-10T09:34:48;80607.44;;;-143.16;19.72
14885;BME280;7534;50.762;7.000;2023-06-10T09:37:21;80190.50;;;-143.16;19.68
14885;BME280;7534;50.762;7.000;2023-06-10T09:40:07;79489.72;;;-143.16;19.03
14885;BME280;7534;50.762;7.000;2023-06-10T09:42:38;80184.47;;;-143.16;19.30
14885;BME280;7534;50.762;7.000;2023-06-10T09:45:06;80889.44;;;-143.16;20.01
14885;BME280;7534;50.762;7.000;2023-06-10T09:47:33;81179.53;;;-143.16;20.42
14885;BME280;7534;50.762;7.000;2023-06-10T09:49:59;80957.94;;;-143.16;20.14
14885;BME280;7534;50.762;7.000;2023-06-10T09:52:27;81439.41;;;-143.16;20.65
14885;BME280;7534;50.762;7.000;2023-06-10T09:55:01;81620.75;;;-143.16;20.85
14885;BME280;7534;50.762;7.000;2023-06-10T09:57:32;81856.50;;;-143.16;21.46
14885;BME280;7534;50.762;7.000;2023-06-10T09:59:59;81703.34;;;-143.16;20.93
14885;BME280;7534;50.762;7.000;2023-06-10T10:02:29;81949.19;;;-143.16;21.47
14885;BME280;7534;50.762;7.000;2023-06-10T10:05:02;81276.22;;;-143.16;20.67
14885;BME280;7534;50.762;7.000;2023-06-10T10:07:35;81155.34;;;-143.16;20.29
14885;BME280;7534;50.762;7.000;2023-06-10T10:10:02;80861.25;;;-143.16;20.13
14885;BME280;7534;50.762;7.000;2023-06-10T10:12:28;80831.03;;;-143.16;20.38
14885;BME280;7534;50.762;7.000;2023-06-10T10:14:56;81296.38;;;-143.16;20.43
14885;BME280;7534;50.762;7.000;2023-06-10T10:17:24;81280.25;;;-143.16;20.60
14885;BME280;7534;50.762;7.000;2023-06-10T10:20:04;81455.53;;;-143.16;20.38
14885;BME280;7534;50.762;7.000;2023-06-10T10:22:43;81604.63;;;-143.16;20.92
14885;BME280;7534;50.762;7.000;2023-06-10T10:25:16;81699.31;;;-143.16;21.01
14885;BME280;7534;50.762;7.000;2023-06-10T10:28:10;81725.53;;;-143.16;21.11
14885;BME280;7534;50.762;7.000;2023-06-10T10:30:50;81985.44;;;-143.16;21.39
14885;BME280;7534;50.762;7.000;2023-06-10T10:33:20;82358.25;;;-143.16;21.79
14885;BME280;7534;50.762;7.000;2023-06-10T10:35:50;82495.28;;;-143.16;22.05
14885;BME280;7534;50.762;7.000;2023-06-10T10:38:16;82559.78;;;-143.16;22.13
14885;BME280;7534;50.762;7.000;2023-06-10T10:40:45;82430.81;;;-143.16;22.33
14885;BME280;7534;50.762;7.000;2023-06-10T10:43:13;82275.63;;;-143.16;21.58
14885;BME280;7534;50.762;7.000;2023-06-10T10:45:39;82104.34;;;-143.16;21.62
14885;BME280;7534;50.762;7.000;2023-06-10T10:48:09;82051.94;;;-143.16;21.38
14885;BME280;7534;50.762;7.000;2023-06-10T10:50:38;82243.38;;;-143.16;21.55
14885;BME280;7534;50.762;7.000;2023-06-10T10:53:05;82229.28;;;-143.16;21.74
14885;BME280;7534;50.762;7.000;2023-06-10T10:55:31;82344.16;;;-143.16;21.56
14885;BME280;7534;50.762;7.000;2023-06-10T10:58:06;82773.41;;;-143.16;22.25
14885;BME280;7534;50.762;7.000;2023-06-10T11:00:37;82801.63;;;-143.16;22.60
14885;BME280;7534;50.762;7.000;2023-06-10T11:05:47;82991.09;;;-143.16;22.53
14885;BME280;7534;50.762;7.000;2023-06-10T11:11:00;83069.72;;;-143.16;22.97
14885;BME280;7534;50.762;7.000;2023-06-10T11:13:27;82997.16;;;-143.16;23.32
14885;BME280;7534;50.762;7.000;2023-06-10T11:15:58;83061.66;;;-143.16;22.73
14885;BME280;7534;50.762;7.000;2023-06-10T11:18:38;83154.38;;;-143.16;23.10
14885;BME280;7534;50.762;7.000;2023-06-10T11:21:05;83146.31;;;-143.16;22.83
14885;BME280;7534;50.762;7.000;2023-06-10T11:23:35;83146.31;;;-143.16;22.99
14885;BME280;7534;50.762;7.000;2023-06-10T11:26:30;83178.56;;;-143.16;23.00
14885;BME280;7534;50.762;7.000;2023-06-10T11:31:31;83130.19;;;-143.16;22.40
14885;BME280;7534;50.762;7.000;2023-06-10T11:34:05;83114.06;;;-143.16;22.64
14885;BME280;7534;50.762;7.000;2023-06-10T11:36:53;83158.41;;;-143.16;23.01
14885;BME280;7534;50.762;7.000;2023-06-10T11:39:21;83081.81;;;-143.16;22.72
14885;BME280;7534;50.762;7.000;2023-06-10T11:41:47;83045.53;;;-143.16;22.56
14885;BME280;7534;50.762;7.000;2023-06-10T11:44:14;83099.94;;;-143.16;22.08
14885;BME280;7534;50.762;7.000;2023-06-10T11:46:41;83027.38;;;-143.16;21.81
14885;BME280;7534;50.762;7.000;2023-06-10T11:49:08;83116.06;;;-143.16;21.63
14885;BME280;7534;50.762;7.000;2023-06-10T11:51:39;83154.38;;;-143.16;21.68
14885;BME280;7534;50.762;7.000;2023-06-10T11:54:10;82985.06;;;-143.16;21.56
14885;BME280;7534;50.762;7.000;2023-06-10T11:56:36;82966.91;;;-143.16;21.33
14885;BME280;7534;50.762;7.000;2023-06-10T11:59:05;82962.88;;;-143.16;21.22
14885;BME280;7534;50.762;7.000;2023-06-10T12:01:35;83045.53;;;-143.16;21.42
14885;BME280;7534;50.762;7.000;2023-06-10T12:04:07;83019.31;;;-143.16;21.42
14885;BME280;7534;50.762;7.000;2023-06-10T12:06:53;82964.91;;;-143.16;21.26
14885;BME280;7534;50.762;7.000;2023-06-10T12:09:25;82912.50;;;-143.16;21.23
14885;BME280;7534;50.762;7.000;2023-06-10T12:11:59;82977.00;;;-143.16;20.86
14885;BME280;7534;50.762;7.000;2023-06-10T12:14:54;82954.81;;;-143.16;20.99
14885;BME280;7534;50.762;7.000;2023-06-10T12:17:23;83089.88;;;-143.16;21.16
14885;BME280;7534;50.762;7.000;2023-06-10T12:19:52;83226.94;;;-143.16;21.58
14885;BME280;7534;50.762;7.000;2023-06-10T12:22:18;83380.13;;;-143.16;21.77
14885;BME280;7534;50.762;7.000;2023-06-10T12:25:04;83404.31;;;-143.16;21.95
14885;BME280;7534;50.762;7.000;2023-06-10T12:27:33;83345.88;;;-143.16;21.46
14885;BME280;7534;50.762;7.000;2023-06-10T12:30:01;83331.75;;;-143.16;21.23
14885;BME280;7534;50.762;7.000;2023-06-10T12:32:44;83376.09;;;-143.16;21.13
14885;BME280;7534;50.762;7.000;2023-06-10T12:35:12;83235.00;;;-143.16;21.13
14885;BME280;7534;50.762;7.000;2023-06-10T12:37:41;83291.44;;;-143.16;20.91
14885;BME280;7534;50.762;7.000;2023-06-10T12:40:08;83353.94;;;-143.16;20.85
14885;BME280;7534;50.762;7.000;2023-06-10T12:42:38;83343.84;;;-143.16;20.38
14885;BME280;7534;50.762;7.000;2023-06-10T12:45:06;83359.97;;;-143.16;20.66
14885;BME280;7534;50.762;7.000;2023-06-10T12:47:36;83390.22;;;-143.16;20.56
14885;BME280;7534;50.762;7.000;2023-06-10T12:50:05;83464.81;;;-143.16;20.85
14885;BME280;7534;50.762;7.000;2023-06-10T12:52:31;83382.16;;;-143.16;20.49
14885;BME280;7534;50.762;7.000;2023-06-10T12:54:58;83307.56;;;-143.16;20.36
14885;BME280;7534;50.762;7.000;2023-06-10T12:57:24;83239.03;;;-143.16;20.62
14885;BME280;7534;50.762;7.000;2023-06-10T12:59:50;83083.81;;;-143.16;20.59
14885;BME280;7534;50.762;7.000;2023-06-10T13:02:21;83007.22;;;-143.16;20.32
14885;BME280;7534;50.762;7.000;2023-06-10T13:04:50;82926.59;;;-143.16;19.66